Hlavní strana
METAR-TAF:

METAR-TAF

Letiště :

Nalčik, Rusko

zeměpisná šířka: 43-30-46N, zeměpisná délka: 043-38-12E, výška: 445 m

Aktuální stav počasí

Zpráva byla vytvořena před 45 minutami, v 02:00 UTC
Východní vítr 2 kt
Teplota 9°C
Vlhkost vzduchu 100%
Tlak 1021 hPa
Viditelnost: 0800 m
mlha

METAR: URMN 290200Z 09001MPS 0800 R24/1000 FG VV001 09/09 Q1021 R24/////// NOSIG RMK QBB040 MT OBSC OBSC OBST QFE729

Čas: 06:45 (02:45 UTC)

Předpověď počasí

Zpráva byla vytvořena před 45 minutami, v 02:00 UTC
Předpověď platná od 29 v 03 UTC do 29 v 12 UTC
Východoseverovýchodní vítr 6 kt
Viditelnost: 2100 m
Oblačno až skoro zataženo ve výšce 500 ft
kouřmo
Dočasný
od 29 v 03 UTC do 29 v 06 UTC
Viditelnost: 0500 m
Zataženo ve výšce 200 ft
mlha
Změna
od 29 v 06 UTC do 29 v 08 UTC
Viditelnost: 6000 m
Oblačno až skoro zataženo ve výšce 2000 ft

TAF: URMN 290200Z 2903/2912 06003MPS 2100 BR BKN005 TEMPO 2903/2906 0500 FG OVC002 BECMG 2906/2908 6000 NSW BKN020

Stav a předpovědi počasí z více než 4 000 letišť (zprávy METAR a TAF).

Červené a žluté tečky na mapě představují dostupné meteorologické stanice.

Když kurzor umístíte na tečku, zobrazí se název stanice.

Pak kliknutím zobrazíte stav a předpověď počasí.

Chcete-li změnit mapu, kliknutím na zelené tlačítko se znaménkem +mapu přiblížíte, kliknutím na zelené tlačítko se znaménkem – mapu oddálíte a kliknutím na zelené šipky přejdete na sousední mapy.


METAR-TAF: